sensor_id;sensor_type;location;lat;lon;timestamp;P1;durP1;ratioP1;P2;durP2;ratioP2
68923;SDS011;55961;52.156;20.942;2023-09-12T00:02:24;27.83;;;18.42;;
68923;SDS011;55961;52.156;20.942;2023-09-12T00:04:50;29.30;;;18.47;;
68923;SDS011;55961;52.156;20.942;2023-09-12T00:07:16;27.60;;;17.83;;
68923;SDS011;55961;52.156;20.942;2023-09-12T00:09:43;25.83;;;17.85;;
68923;SDS011;55961;52.156;20.942;2023-09-12T00:12:09;28.13;;;18.65;;
68923;SDS011;55961;52.156;20.942;2023-09-12T00:14:39;28.85;;;19.05;;
68923;SDS011;55961;52.156;20.942;2023-09-12T00:17:05;25.63;;;18.53;;
68923;SDS011;55961;52.156;20.942;2023-09-12T00:19:30;25.60;;;18.17;;
68923;SDS011;55961;52.156;20.942;2023-09-12T00:21:57;26.67;;;17.98;;
68923;SDS011;55961;52.156;20.942;2023-09-12T00:24:22;27.63;;;18.07;;
68923;SDS011;55961;52.156;20.942;2023-09-12T00:26:49;28.52;;;17.98;;
68923;SDS011;55961;52.156;20.942;2023-09-12T00:29:15;24.17;;;17.50;;
68923;SDS011;55961;52.156;20.942;2023-09-12T00:31:41;22.88;;;16.90;;
68923;SDS011;55961;52.156;20.942;2023-09-12T00:34:06;26.03;;;18.70;;
68923;SDS011;55961;52.156;20.942;2023-09-12T00:36:32;28.45;;;18.42;;
68923;SDS011;55961;52.156;20.942;2023-09-12T00:38:58;25.85;;;17.27;;
68923;SDS011;55961;52.156;20.942;2023-09-12T00:41:24;26.77;;;17.73;;
68923;SDS011;55961;52.156;20.942;2023-09-12T00:43:50;29.00;;;17.73;;
68923;SDS011;55961;52.156;20.942;2023-09-12T00:46:18;26.65;;;18.25;;
68923;SDS011;55961;52.156;20.942;2023-09-12T00:48:46;25.90;;;17.33;;
68923;SDS011;55961;52.156;20.942;2023-09-12T00:51:13;26.67;;;17.23;;
68923;SDS011;55961;52.156;20.942;2023-09-12T00:53:41;32.40;;;17.60;;
68923;SDS011;55961;52.156;20.942;2023-09-12T00:56:07;26.77;;;18.02;;
68923;SDS011;55961;52.156;20.942;2023-09-12T00:58:33;24.20;;;18.38;;
68923;SDS011;55961;52.156;20.942;2023-09-12T01:00:59;26.08;;;17.98;;
68923;SDS011;55961;52.156;20.942;2023-09-12T01:03:25;28.07;;;18.27;;
68923;SDS011;55961;52.156;20.942;2023-09-12T01:05:53;26.77;;;17.75;;
68923;SDS011;55961;52.156;20.942;2023-09-12T01:08:19;28.90;;;19.65;;
68923;SDS011;55961;52.156;20.942;2023-09-12T01:10:46;29.52;;;19.90;;
68923;SDS011;55961;52.156;20.942;2023-09-12T01:13:15;30.83;;;21.50;;
68923;SDS011;55961;52.156;20.942;2023-09-12T01:15:42;32.37;;;21.27;;
68923;SDS011;55961;52.156;20.942;2023-09-12T01:18:09;32.58;;;20.75;;
68923;SDS011;55961;52.156;20.942;2023-09-12T01:20:35;33.88;;;21.95;;
68923;SDS011;55961;52.156;20.942;2023-09-12T01:26:29;31.33;;;20.38;;
68923;SDS011;55961;52.156;20.942;2023-09-12T01:29:01;28.83;;;20.57;;
68923;SDS011;55961;52.156;20.942;2023-09-12T01:31:31;28.27;;;20.83;;
68923;SDS011;55961;52.156;20.942;2023-09-12T01:34:07;27.13;;;20.98;;
68923;SDS011;55961;52.156;20.942;2023-09-12T01:36:35;30.27;;;20.42;;
68923;SDS011;55961;52.156;20.942;2023-09-12T01:39:00;30.88;;;20.58;;
68923;SDS011;55961;52.156;20.942;2023-09-12T01:41:27;28.77;;;19.80;;
68923;SDS011;55961;52.156;20.942;2023-09-12T01:43:56;30.15;;;19.70;;
68923;SDS011;55961;52.156;20.942;2023-09-12T01:46:23;28.85;;;21.30;;
68923;SDS011;55961;52.156;20.942;2023-09-12T01:48:51;31.58;;;20.17;;
68923;SDS011;55961;52.156;20.942;2023-09-12T01:51:19;27.88;;;19.85;;
68923;SDS011;55961;52.156;20.942;2023-09-12T01:53:46;32.87;;;20.80;;
68923;SDS011;55961;52.156;20.942;2023-09-12T01:56:14;27.05;;;20.40;;
68923;SDS011;55961;52.156;20.942;2023-09-12T01:58:40;32.38;;;21.90;;
68923;SDS011;55961;52.156;20.942;2023-09-12T02:01:06;29.27;;;20.58;;
68923;SDS011;55961;52.156;20.942;2023-09-12T02:03:32;24.80;;;18.50;;
68923;SDS011;55961;52.156;20.942;2023-09-12T02:05:58;32.28;;;21.05;;
68923;SDS011;55961;52.156;20.942;2023-09-12T02:08:23;28.55;;;20.35;;
68923;SDS011;55961;52.156;20.942;2023-09-12T02:10:50;28.70;;;20.25;;
68923;SDS011;55961;52.156;20.942;2023-09-12T02:13:15;26.90;;;20.33;;
68923;SDS011;55961;52.156;20.942;2023-09-12T02:15:41;28.08;;;20.23;;
68923;SDS011;55961;52.156;20.942;2023-09-12T02:18:07;29.47;;;20.00;;
68923;SDS011;55961;52.156;20.942;2023-09-12T02:20:37;30.23;;;20.77;;
68923;SDS011;55961;52.156;20.942;2023-09-12T02:23:04;29.48;;;21.13;;
68923;SDS011;55961;52.156;20.942;2023-09-12T02:25:30;28.67;;;20.77;;
68923;SDS011;55961;52.156;20.942;2023-09-12T02:27:56;31.10;;;20.30;;
68923;SDS011;55961;52.156;20.942;2023-09-12T02:30:22;27.93;;;19.70;;
68923;SDS011;55961;52.156;20.942;2023-09-12T02:32:48;28.20;;;19.90;;
68923;SDS011;55961;52.156;20.942;2023-09-12T02:35:14;26.90;;;19.77;;
68923;SDS011;55961;52.156;20.942;2023-09-12T02:37:40;29.52;;;19.95;;
68923;SDS011;55961;52.156;20.942;2023-09-12T02:40:06;27.63;;;19.70;;
68923;SDS011;55961;52.156;20.942;2023-09-12T02:42:34;27.23;;;19.55;;
68923;SDS011;55961;52.156;20.942;2023-09-12T02:45:00;25.23;;;18.95;;
68923;SDS011;55961;52.156;20.942;2023-09-12T02:47:25;28.15;;;19.02;;
68923;SDS011;55961;52.156;20.942;2023-09-12T02:49:52;26.37;;;19.93;;
68923;SDS011;55961;52.156;20.942;2023-09-12T02:52:17;28.85;;;19.92;;
68923;SDS011;55961;52.156;20.942;2023-09-12T02:54:43;27.52;;;19.40;;
68923;SDS011;55961;52.156;20.942;2023-09-12T02:57:09;29.77;;;19.50;;
68923;SDS011;55961;52.156;20.942;2023-09-12T02:59:35;28.45;;;19.30;;
68923;SDS011;55961;52.156;20.942;2023-09-12T03:02:02;27.85;;;20.25;;
68923;SDS011;55961;52.156;20.942;2023-09-12T03:04:29;28.08;;;19.65;;
68923;SDS011;55961;52.156;20.942;2023-09-12T03:06:55;26.17;;;19.77;;
68923;SDS011;55961;52.156;20.942;2023-09-12T03:09:21;28.80;;;18.67;;
68923;SDS011;55961;52.156;20.942;2023-09-12T03:11:48;26.75;;;19.75;;
68923;SDS011;55961;52.156;20.942;2023-09-12T03:14:15;23.55;;;19.10;;
68923;SDS011;55961;52.156;20.942;2023-09-12T03:16:41;27.05;;;19.02;;
68923;SDS011;55961;52.156;20.942;2023-09-12T03:19:07;25.33;;;18.90;;
68923;SDS011;55961;52.156;20.942;2023-09-12T03:21:33;27.42;;;18.90;;
68923;SDS011;55961;52.156;20.942;2023-09-12T03:23:59;24.55;;;18.42;;
68923;SDS011;55961;52.156;20.942;2023-09-12T03:26:25;27.80;;;18.93;;
68923;SDS011;55961;52.156;20.942;2023-09-12T03:28:52;41.13;;;20.50;;
68923;SDS011;55961;52.156;20.942;2023-09-12T03:31:18;30.40;;;19.25;;
68923;SDS011;55961;52.156;20.942;2023-09-12T03:33:44;28.30;;;19.63;;
68923;SDS011;55961;52.156;20.942;2023-09-12T03:36:15;25.40;;;17.45;;
68923;SDS011;55961;52.156;20.942;2023-09-12T03:38:43;29.40;;;19.87;;
68923;SDS011;55961;52.156;20.942;2023-09-12T03:41:09;27.85;;;20.65;;
68923;SDS011;55961;52.156;20.942;2023-09-12T03:43:35;28.70;;;20.65;;
68923;SDS011;55961;52.156;20.942;2023-09-12T03:46:01;26.80;;;19.42;;
68923;SDS011;55961;52.156;20.942;2023-09-12T03:48:29;32.33;;;20.27;;
68923;SDS011;55961;52.156;20.942;2023-09-12T03:50:59;31.10;;;19.03;;
68923;SDS011;55961;52.156;20.942;2023-09-12T03:53:25;28.85;;;20.88;;
68923;SDS011;55961;52.156;20.942;2023-09-12T03:55:54;30.38;;;19.75;;
68923;SDS011;55961;52.156;20.942;2023-09-12T03:58:20;28.05;;;19.25;;
68923;SDS011;55961;52.156;20.942;2023-09-12T04:00:46;30.07;;;20.00;;
68923;SDS011;55961;52.156;20.942;2023-09-12T04:03:12;26.42;;;19.92;;
68923;SDS011;55961;52.156;20.942;2023-09-12T04:05:38;27.27;;;20.20;;
68923;SDS011;55961;52.156;20.942;2023-09-12T04:08:04;27.70;;;20.42;;
68923;SDS011;55961;52.156;20.942;2023-09-12T04:10:30;25.58;;;20.00;;
68923;SDS011;55961;52.156;20.942;2023-09-12T04:12:57;29.20;;;20.50;;
68923;SDS011;55961;52.156;20.942;2023-09-12T04:15:23;28.05;;;20.27;;
68923;SDS011;55961;52.156;20.942;2023-09-12T04:17:49;31.10;;;20.88;;
68923;SDS011;55961;52.156;20.942;2023-09-12T04:20:15;34.77;;;22.10;;
68923;SDS011;55961;52.156;20.942;2023-09-12T04:22:42;32.00;;;21.30;;
68923;SDS011;55961;52.156;20.942;2023-09-12T04:25:08;33.88;;;22.17;;
68923;SDS011;55961;52.156;20.942;2023-09-12T04:27:34;31.27;;;22.23;;
68923;SDS011;55961;52.156;20.942;2023-09-12T04:30:00;29.02;;;21.70;;
68923;SDS011;55961;52.156;20.942;2023-09-12T04:32:26;30.07;;;22.07;;
68923;SDS011;55961;52.156;20.942;2023-09-12T04:34:52;28.70;;;21.08;;
68923;SDS011;55961;52.156;20.942;2023-09-12T04:37:18;27.55;;;20.63;;
68923;SDS011;55961;52.156;20.942;2023-09-12T04:39:44;31.03;;;20.73;;
68923;SDS011;55961;52.156;20.942;2023-09-12T04:42:10;29.15;;;20.83;;
68923;SDS011;55961;52.156;20.942;2023-09-12T04:44:38;27.33;;;21.08;;
68923;SDS011;55961;52.156;20.942;2023-09-12T04:47:06;27.58;;;21.48;;
68923;SDS011;55961;52.156;20.942;2023-09-12T04:49:32;35.83;;;22.25;;
68923;SDS011;55961;52.156;20.942;2023-09-12T04:51:58;30.97;;;21.00;;
68923;SDS011;55961;52.156;20.942;2023-09-12T04:54:24;33.92;;;22.40;;
68923;SDS011;55961;52.156;20.942;2023-09-12T04:56:50;31.05;;;21.05;;
68923;SDS011;55961;52.156;20.942;2023-09-12T04:59:16;28.27;;;21.30;;
68923;SDS011;55961;52.156;20.942;2023-09-12T05:05:07;35.25;;;21.25;;
68923;SDS011;55961;52.156;20.942;2023-09-12T05:07:33;30.35;;;21.48;;
68923;SDS011;55961;52.156;20.942;2023-09-12T05:09:59;32.67;;;22.73;;
68923;SDS011;55961;52.156;20.942;2023-09-12T05:12:25;32.28;;;22.75;;
68923;SDS011;55961;52.156;20.942;2023-09-12T05:14:51;30.52;;;22.00;;
68923;SDS011;55961;52.156;20.942;2023-09-12T05:17:17;31.50;;;23.13;;
68923;SDS011;55961;52.156;20.942;2023-09-12T05:19:43;31.30;;;22.47;;
68923;SDS011;55961;52.156;20.942;2023-09-12T05:22:09;28.35;;;21.67;;
68923;SDS011;55961;52.156;20.942;2023-09-12T05:24:35;29.63;;;22.85;;
68923;SDS011;55961;52.156;20.942;2023-09-12T05:27:01;32.72;;;22.45;;
68923;SDS011;55961;52.156;20.942;2023-09-12T05:29:27;34.90;;;22.57;;
68923;SDS011;55961;52.156;20.942;2023-09-12T05:31:53;31.60;;;22.33;;
68923;SDS011;55961;52.156;20.942;2023-09-12T05:34:19;32.30;;;21.45;;
68923;SDS011;55961;52.156;20.942;2023-09-12T05:36:45;35.30;;;22.33;;
68923;SDS011;55961;52.156;20.942;2023-09-12T05:39:11;31.43;;;21.80;;
68923;SDS011;55961;52.156;20.942;2023-09-12T05:41:39;30.80;;;21.40;;
68923;SDS011;55961;52.156;20.942;2023-09-12T05:44:05;34.92;;;21.80;;
68923;SDS011;55961;52.156;20.942;2023-09-12T05:46:31;35.95;;;21.52;;
68923;SDS011;55961;52.156;20.942;2023-09-12T05:48:57;28.90;;;21.03;;
68923;SDS011;55961;52.156;20.942;2023-09-12T05:51:23;32.17;;;21.13;;
68923;SDS011;55961;52.156;20.942;2023-09-12T05:53:48;31.30;;;21.23;;
68923;SDS011;55961;52.156;20.942;2023-09-12T05:56:15;40.40;;;20.97;;
68923;SDS011;55961;52.156;20.942;2023-09-12T05:58:40;36.47;;;19.90;;
68923;SDS011;55961;52.156;20.942;2023-09-12T06:01:08;36.55;;;20.48;;
68923;SDS011;55961;52.156;20.942;2023-09-12T06:03:34;32.78;;;20.08;;
68923;SDS011;55961;52.156;20.942;2023-09-12T06:06:00;34.70;;;20.63;;
68923;SDS011;55961;52.156;20.942;2023-09-12T06:08:26;35.88;;;20.90;;
68923;SDS011;55961;52.156;20.942;2023-09-12T06:10:52;32.72;;;21.52;;
68923;SDS011;55961;52.156;20.942;2023-09-12T06:13:19;34.58;;;22.52;;
68923;SDS011;55961;52.156;20.942;2023-09-12T06:15:46;33.00;;;21.13;;
68923;SDS011;55961;52.156;20.942;2023-09-12T06:18:12;32.97;;;22.02;;
68923;SDS011;55961;52.156;20.942;2023-09-12T06:20:38;26.27;;;18.98;;
68923;SDS011;55961;52.156;20.942;2023-09-12T06:23:04;27.80;;;19.98;;
68923;SDS011;55961;52.156;20.942;2023-09-12T06:25:30;27.47;;;20.33;;
68923;SDS011;55961;52.156;20.942;2023-09-12T06:27:56;25.02;;;18.60;;
68923;SDS011;55961;52.156;20.942;2023-09-12T06:30:22;29.27;;;19.45;;
68923;SDS011;55961;52.156;20.942;2023-09-12T06:32:48;27.37;;;18.60;;
68923;SDS011;55961;52.156;20.942;2023-09-12T06:35:14;28.92;;;17.88;;
68923;SDS011;55961;52.156;20.942;2023-09-12T06:37:40;28.75;;;18.60;;
68923;SDS011;55961;52.156;20.942;2023-09-12T06:40:06;27.35;;;18.25;;
68923;SDS011;55961;52.156;20.942;2023-09-12T06:42:32;30.93;;;18.53;;
68923;SDS011;55961;52.156;20.942;2023-09-12T06:44:59;23.70;;;17.25;;
68923;SDS011;55961;52.156;20.942;2023-09-12T06:47:24;26.77;;;17.52;;
68923;SDS011;55961;52.156;20.942;2023-09-12T06:49:50;26.05;;;17.10;;
68923;SDS011;55961;52.156;20.942;2023-09-12T06:52:16;22.53;;;16.13;;
68923;SDS011;55961;52.156;20.942;2023-09-12T06:54:42;28.17;;;17.67;;
68923;SDS011;55961;52.156;20.942;2023-09-12T06:57:08;24.35;;;17.60;;
68923;SDS011;55961;52.156;20.942;2023-09-12T06:59:34;22.23;;;16.47;;
68923;SDS011;55961;52.156;20.942;2023-09-12T07:02:00;24.10;;;15.48;;
68923;SDS011;55961;52.156;20.942;2023-09-12T07:04:26;21.20;;;14.68;;
68923;SDS011;55961;52.156;20.942;2023-09-12T07:06:52;26.03;;;14.80;;
68923;SDS011;55961;52.156;20.942;2023-09-12T07:09:18;24.10;;;14.93;;
68923;SDS011;55961;52.156;20.942;2023-09-12T07:11:44;21.13;;;15.52;;
68923;SDS011;55961;52.156;20.942;2023-09-12T07:14:10;27.20;;;15.27;;
68923;SDS011;55961;52.156;20.942;2023-09-12T07:16:36;22.55;;;15.52;;
68923;SDS011;55961;52.156;20.942;2023-09-12T07:19:02;21.50;;;14.80;;
68923;SDS011;55961;52.156;20.942;2023-09-12T07:21:28;22.67;;;14.00;;
68923;SDS011;55961;52.156;20.942;2023-09-12T07:23:55;22.45;;;14.60;;
68923;SDS011;55961;52.156;20.942;2023-09-12T07:26:21;21.98;;;14.20;;
68923;SDS011;55961;52.156;20.942;2023-09-12T07:28:47;23.40;;;13.80;;
68923;SDS011;55961;52.156;20.942;2023-09-12T07:31:12;22.50;;;15.57;;
68923;SDS011;55961;52.156;20.942;2023-09-12T07:33:40;21.05;;;14.85;;
68923;SDS011;55961;52.156;20.942;2023-09-12T07:36:06;22.52;;;14.73;;
68923;SDS011;55961;52.156;20.942;2023-09-12T07:38:32;23.03;;;13.47;;
68923;SDS011;55961;52.156;20.942;2023-09-12T07:41:00;27.02;;;17.52;;
68923;SDS011;55961;52.156;20.942;2023-09-12T07:43:28;26.90;;;17.17;;
68923;SDS011;55961;52.156;20.942;2023-09-12T07:45:54;18.48;;;14.55;;
68923;SDS011;55961;52.156;20.942;2023-09-12T07:48:24;22.17;;;14.50;;
68923;SDS011;55961;52.156;20.942;2023-09-12T07:50:50;20.98;;;13.45;;
68923;SDS011;55961;52.156;20.942;2023-09-12T07:53:17;22.23;;;14.23;;
68923;SDS011;55961;52.156;20.942;2023-09-12T07:55:43;19.50;;;14.23;;
68923;SDS011;55961;52.156;20.942;2023-09-12T07:58:13;17.67;;;13.75;;
68923;SDS011;55961;52.156;20.942;2023-09-12T08:00:43;25.23;;;13.63;;
68923;SDS011;55961;52.156;20.942;2023-09-12T08:03:10;20.73;;;14.00;;
68923;SDS011;55961;52.156;20.942;2023-09-12T08:05:36;25.55;;;13.40;;
68923;SDS011;55961;52.156;20.942;2023-09-12T08:08:02;23.02;;;12.57;;
68923;SDS011;55961;52.156;20.942;2023-09-12T08:10:28;23.02;;;13.13;;
68923;SDS011;55961;52.156;20.942;2023-09-12T08:12:54;22.43;;;12.47;;
68923;SDS011;55961;52.156;20.942;2023-09-12T08:15:20;22.17;;;12.15;;
68923;SDS011;55961;52.156;20.942;2023-09-12T08:17:46;19.77;;;12.48;;
68923;SDS011;55961;52.156;20.942;2023-09-12T08:20:17;21.00;;;12.10;;
68923;SDS011;55961;52.156;20.942;2023-09-12T08:22:46;23.47;;;13.23;;
68923;SDS011;55961;52.156;20.942;2023-09-12T08:25:12;20.95;;;12.63;;
68923;SDS011;55961;52.156;20.942;2023-09-12T08:27:40;20.10;;;13.23;;
68923;SDS011;55961;52.156;20.942;2023-09-12T08:30:07;21.73;;;12.73;;
68923;SDS011;55961;52.156;20.942;2023-09-12T08:32:34;26.27;;;12.43;;
68923;SDS011;55961;52.156;20.942;2023-09-12T08:34:59;22.57;;;11.37;;
68923;SDS011;55961;52.156;20.942;2023-09-12T08:37:25;24.73;;;11.93;;
68923;SDS011;55961;52.156;20.942;2023-09-12T08:39:52;18.83;;;11.90;;
68923;SDS011;55961;52.156;20.942;2023-09-12T08:42:22;19.55;;;12.38;;
68923;SDS011;55961;52.156;20.942;2023-09-12T08:44:48;19.30;;;11.70;;
68923;SDS011;55961;52.156;20.942;2023-09-12T08:47:15;23.15;;;12.27;;
68923;SDS011;55961;52.156;20.942;2023-09-12T08:49:43;26.38;;;13.18;;
68923;SDS011;55961;52.156;20.942;2023-09-12T08:52:09;21.40;;;12.00;;
68923;SDS011;55961;52.156;20.942;2023-09-12T08:54:35;19.08;;;11.95;;
68923;SDS011;55961;52.156;20.942;2023-09-12T08:57:01;20.27;;;11.73;;
68923;SDS011;55961;52.156;20.942;2023-09-12T08:59:31;21.35;;;12.50;;
68923;SDS011;55961;52.156;20.942;2023-09-12T09:01:59;17.50;;;12.30;;
68923;SDS011;55961;52.156;20.942;2023-09-12T09:04:28;15.82;;;10.82;;
68923;SDS011;55961;52.156;20.942;2023-09-12T09:06:56;16.42;;;10.45;;
68923;SDS011;55961;52.156;20.942;2023-09-12T09:09:24;16.83;;;10.80;;
68923;SDS011;55961;52.156;20.942;2023-09-12T09:11:53;13.65;;;11.13;;
68923;SDS011;55961;52.156;20.942;2023-09-12T09:14:19;18.60;;;11.50;;
68923;SDS011;55961;52.156;20.942;2023-09-12T09:16:45;14.77;;;10.25;;
68923;SDS011;55961;52.156;20.942;2023-09-12T09:19:11;13.50;;;10.17;;
68923;SDS011;55961;52.156;20.942;2023-09-12T09:21:37;14.38;;;10.77;;
68923;SDS011;55961;52.156;20.942;2023-09-12T09:24:09;17.50;;;11.20;;
68923;SDS011;55961;52.156;20.942;2023-09-12T09:29:19;15.20;;;10.80;;
68923;SDS011;55961;52.156;20.942;2023-09-12T09:31:47;14.63;;;9.73;;
68923;SDS011;55961;52.156;20.942;2023-09-12T09:34:15;13.75;;;9.93;;
68923;SDS011;55961;52.156;20.942;2023-09-12T09:36:44;12.60;;;10.02;;
68923;SDS011;55961;52.156;20.942;2023-09-12T09:39:12;15.50;;;9.95;;
68923;SDS011;55961;52.156;20.942;2023-09-12T09:41:39;14.35;;;9.93;;
68923;SDS011;55961;52.156;20.942;2023-09-12T09:44:06;13.43;;;10.13;;
68923;SDS011;55961;52.156;20.942;2023-09-12T09:46:33;11.77;;;9.80;;
68923;SDS011;55961;52.156;20.942;2023-09-12T09:49:01;18.35;;;10.98;;
68923;SDS011;55961;52.156;20.942;2023-09-12T09:51:27;17.63;;;10.10;;
68923;SDS011;55961;52.156;20.942;2023-09-12T09:53:56;14.63;;;10.05;;
68923;SDS011;55961;52.156;20.942;2023-09-12T09:56:24;12.53;;;10.00;;
68923;SDS011;55961;52.156;20.942;2023-09-12T09:58:51;15.10;;;9.85;;
68923;SDS011;55961;52.156;20.942;2023-09-12T10:01:22;11.05;;;9.82;;
68923;SDS011;55961;52.156;20.942;2023-09-12T10:03:52;15.68;;;10.52;;
68923;SDS011;55961;52.156;20.942;2023-09-12T10:06:22;12.80;;;10.48;;
68923;SDS011;55961;52.156;20.942;2023-09-12T10:08:50;12.27;;;10.33;;
68923;SDS011;55961;52.156;20.942;2023-09-12T10:11:18;12.77;;;10.30;;
68923;SDS011;55961;52.156;20.942;2023-09-12T10:13:55;13.40;;;10.88;;
68923;SDS011;55961;52.156;20.942;2023-09-12T10:16:29;12.32;;;10.27;;
68923;SDS011;55961;52.156;20.942;2023-09-12T10:24:29;13.95;;;10.05;;
68923;SDS011;55961;52.156;20.942;2023-09-12T10:26:56;13.07;;;9.57;;
68923;SDS011;55961;52.156;20.942;2023-09-12T10:29:23;11.35;;;10.13;;
68923;SDS011;55961;52.156;20.942;2023-09-12T10:31:49;11.65;;;10.45;;
68923;SDS011;55961;52.156;20.942;2023-09-12T10:34:15;15.73;;;9.93;;
68923;SDS011;55961;52.156;20.942;2023-09-12T10:36:42;14.75;;;10.70;;
68923;SDS011;55961;52.156;20.942;2023-09-12T10:39:09;15.25;;;11.00;;
68923;SDS011;55961;52.156;20.942;2023-09-12T10:41:40;16.33;;;11.20;;
68923;SDS011;55961;52.156;20.942;2023-09-12T10:44:07;12.73;;;11.43;;
68923;SDS011;55961;52.156;20.942;2023-09-12T10:46:38;14.20;;;10.87;;
68923;SDS011;55961;52.156;20.942;2023-09-12T10:49:08;11.50;;;10.18;;
68923;SDS011;55961;52.156;20.942;2023-09-12T10:51:39;14.27;;;11.02;;
68923;SDS011;55961;52.156;20.942;2023-09-12T10:54:06;12.45;;;10.35;;
68923;SDS011;55961;52.156;20.942;2023-09-12T10:56:33;11.95;;;10.75;;
68923;SDS011;55961;52.156;20.942;2023-09-12T11:01:43;12.55;;;10.40;;
68923;SDS011;55961;52.156;20.942;2023-09-12T11:06:52;12.88;;;11.00;;
68923;SDS011;55961;52.156;20.942;2023-09-12T11:09:25;13.52;;;10.82;;
68923;SDS011;55961;52.156;20.942;2023-09-12T11:12:04;11.90;;;10.60;;
68923;SDS011;55961;52.156;20.942;2023-09-12T11:14:32;11.75;;;10.55;;
68923;SDS011;55961;52.156;20.942;2023-09-12T11:19:42;11.88;;;10.38;;
68923;SDS011;55961;52.156;20.942;2023-09-12T11:22:27;11.43;;;10.10;;
68923;SDS011;55961;52.156;20.942;2023-09-12T11:24:56;12.97;;;10.43;;
68923;SDS011;55961;52.156;20.942;2023-09-12T11:27:23;14.35;;;11.65;;
68923;SDS011;55961;52.156;20.942;2023-09-12T11:29:50;12.48;;;10.88;;
68923;SDS011;55961;52.156;20.942;2023-09-12T11:32:27;12.30;;;10.65;;
68923;SDS011;55961;52.156;20.942;2023-09-12T11:34:56;13.93;;;11.23;;
68923;SDS011;55961;52.156;20.942;2023-09-12T11:37:25;13.57;;;11.27;;
68923;SDS011;55961;52.156;20.942;2023-09-12T11:39:53;13.52;;;12.15;;
68923;SDS011;55961;52.156;20.942;2023-09-12T11:42:19;13.52;;;11.48;;
68923;SDS011;55961;52.156;20.942;2023-09-12T11:44:48;13.10;;;11.45;;
68923;SDS011;55961;52.156;20.942;2023-09-12T11:47:15;14.25;;;11.48;;
68923;SDS011;55961;52.156;20.942;2023-09-12T11:49:41;16.60;;;11.70;;
68923;SDS011;55961;52.156;20.942;2023-09-12T11:52:11;12.30;;;10.88;;
68923;SDS011;55961;52.156;20.942;2023-09-12T11:54:39;13.35;;;10.90;;
68923;SDS011;55961;52.156;20.942;2023-09-12T11:57:09;14.60;;;11.10;;
68923;SDS011;55961;52.156;20.942;2023-09-12T11:59:37;13.40;;;11.47;;
68923;SDS011;55961;52.156;20.942;2023-09-12T12:02:08;15.00;;;11.55;;
68923;SDS011;55961;52.156;20.942;2023-09-12T12:04:35;13.27;;;11.20;;
68923;SDS011;55961;52.156;20.942;2023-09-12T12:07:02;14.43;;;11.45;;
68923;SDS011;55961;52.156;20.942;2023-09-12T12:09:31;13.10;;;11.48;;
68923;SDS011;55961;52.156;20.942;2023-09-12T12:12:09;16.13;;;11.50;;
68923;SDS011;55961;52.156;20.942;2023-09-12T12:14:36;12.70;;;10.77;;
68923;SDS011;55961;52.156;20.942;2023-09-12T12:17:07;14.35;;;11.13;;
68923;SDS011;55961;52.156;20.942;2023-09-12T12:19:34;14.23;;;11.15;;
68923;SDS011;55961;52.156;20.942;2023-09-12T12:22:02;13.25;;;11.07;;
68923;SDS011;55961;52.156;20.942;2023-09-12T12:24:41;12.30;;;11.00;;
68923;SDS011;55961;52.156;20.942;2023-09-12T12:27:11;14.40;;;10.88;;
68923;SDS011;55961;52.156;20.942;2023-09-12T12:29:37;13.55;;;11.70;;
68923;SDS011;55961;52.156;20.942;2023-09-12T12:32:08;12.68;;;10.82;;
68923;SDS011;55961;52.156;20.942;2023-09-12T12:34:35;14.75;;;12.10;;
68923;SDS011;55961;52.156;20.942;2023-09-12T12:37:01;15.17;;;10.90;;
68923;SDS011;55961;52.156;20.942;2023-09-12T12:39:28;13.50;;;11.10;;
68923;SDS011;55961;52.156;20.942;2023-09-12T12:41:54;14.20;;;11.20;;
68923;SDS011;55961;52.156;20.942;2023-09-12T12:44:20;13.90;;;11.07;;
68923;SDS011;55961;52.156;20.942;2023-09-12T12:46:47;14.70;;;11.23;;
68923;SDS011;55961;52.156;20.942;2023-09-12T12:49:18;12.37;;;10.50;;
68923;SDS011;55961;52.156;20.942;2023-09-12T12:51:45;14.05;;;11.23;;
68923;SDS011;55961;52.156;20.942;2023-09-12T12:54:11;13.65;;;11.45;;
68923;SDS011;55961;52.156;20.942;2023-09-12T12:56:38;12.90;;;11.02;;
68923;SDS011;55961;52.156;20.942;2023-09-12T12:59:05;12.75;;;11.20;;
68923;SDS011;55961;52.156;20.942;2023-09-12T13:01:35;12.50;;;10.50;;
68923;SDS011;55961;52.156;20.942;2023-09-12T13:04:06;14.73;;;11.13;;
68923;SDS011;55961;52.156;20.942;2023-09-12T13:06:33;12.50;;;11.27;;
68923;SDS011;55961;52.156;20.942;2023-09-12T13:09:02;13.15;;;11.52;;
68923;SDS011;55961;52.156;20.942;2023-09-12T13:11:31;14.40;;;11.40;;
68923;SDS011;55961;52.156;20.942;2023-09-12T13:14:00;13.37;;;11.90;;
68923;SDS011;55961;52.156;20.942;2023-09-12T13:16:26;15.60;;;11.30;;
68923;SDS011;55961;52.156;20.942;2023-09-12T13:18:54;18.05;;;11.55;;
68923;SDS011;55961;52.156;20.942;2023-09-12T13:21:20;14.52;;;11.57;;
68923;SDS011;55961;52.156;20.942;2023-09-12T13:23:46;14.20;;;10.43;;
68923;SDS011;55961;52.156;20.942;2023-09-12T13:26:11;15.18;;;11.20;;
68923;SDS011;55961;52.156;20.942;2023-09-12T13:28:38;20.17;;;12.50;;
68923;SDS011;55961;52.156;20.942;2023-09-12T13:31:04;14.75;;;11.40;;
68923;SDS011;55961;52.156;20.942;2023-09-12T13:33:30;14.70;;;11.73;;
68923;SDS011;55961;52.156;20.942;2023-09-12T13:35:56;14.75;;;11.38;;
68923;SDS011;55961;52.156;20.942;2023-09-12T13:38:22;14.80;;;11.55;;
68923;SDS011;55961;52.156;20.942;2023-09-12T13:40:48;12.93;;;10.70;;
68923;SDS011;55961;52.156;20.942;2023-09-12T13:43:14;12.80;;;10.43;;
68923;SDS011;55961;52.156;20.942;2023-09-12T13:45:40;14.40;;;12.10;;
68923;SDS011;55961;52.156;20.942;2023-09-12T13:48:06;13.82;;;11.05;;
68923;SDS011;55961;52.156;20.942;2023-09-12T13:50:33;12.60;;;11.30;;
68923;SDS011;55961;52.156;20.942;2023-09-12T13:53:00;14.53;;;10.50;;
68923;SDS011;55961;52.156;20.942;2023-09-12T13:55:32;12.57;;;11.15;;
68923;SDS011;55961;52.156;20.942;2023-09-12T13:57:59;15.57;;;11.73;;
68923;SDS011;55961;52.156;20.942;2023-09-12T14:00:27;13.27;;;11.27;;
68923;SDS011;55961;52.156;20.942;2023-09-12T14:02:53;13.50;;;11.15;;
68923;SDS011;55961;52.156;20.942;2023-09-12T14:05:19;14.27;;;11.07;;
68923;SDS011;55961;52.156;20.942;2023-09-12T14:07:45;13.57;;;11.13;;
68923;SDS011;55961;52.156;20.942;2023-09-12T14:10:11;16.33;;;10.95;;
68923;SDS011;55961;52.156;20.942;2023-09-12T14:12:38;14.23;;;11.07;;
68923;SDS011;55961;52.156;20.942;2023-09-12T14:15:04;15.00;;;11.93;;
68923;SDS011;55961;52.156;20.942;2023-09-12T14:17:32;16.23;;;11.80;;
68923;SDS011;55961;52.156;20.942;2023-09-12T14:19:58;14.95;;;11.73;;
68923;SDS011;55961;52.156;20.942;2023-09-12T14:22:24;13.87;;;10.53;;
68923;SDS011;55961;52.156;20.942;2023-09-12T14:24:50;14.38;;;11.20;;
68923;SDS011;55961;52.156;20.942;2023-09-12T14:27:16;15.98;;;11.45;;
68923;SDS011;55961;52.156;20.942;2023-09-12T14:29:42;19.13;;;11.70;;
68923;SDS011;55961;52.156;20.942;2023-09-12T14:32:14;14.48;;;11.77;;